Time;durP1;ratioP1;P1;durP2;ratioP2;P2;SDS_P1;SDS_P2;PMS_P1;PMS_P2;Temp;Humidity;BMP_temperature;BMP_pressure;BME280_temperature;BME280_humidity;BME280_pressure;Samples;Min_cycle;Max_cycle;Signal;HPM_P1;HPM_P2
2022/06/07 08:05:06;;;;;;;2.40;1.77;;;;;;;;;;6186012;22;20966;31
2022/06/07 08:07:32;;;;;;;2.58;1.70;;;;;;;;;;6216201;23;20020;-84
2022/06/07 08:43:25;;;;;;;1.40;1.30;;;;;;;;;;6248209;22;20011;-83
2022/06/07 08:45:53;;;;;;;2.50;1.90;;;;;;;;;;6276949;22;20019;-84
2022/06/07 08:48:26;;;;;;;1.25;1.15;;;;;;;;;;6273729;22;20026;-83
2022/06/07 08:51:13;;;;;;;1.38;1.20;;;;;;;;;;6235243;23;20181;-84
2022/06/07 08:53:44;;;;;;;2.45;1.35;;;;;;;;;;6220478;23;20356;-85
2022/06/07 08:56:15;;;;;;;1.20;1.10;;;;;;;;;;6248190;23;20008;-84
2022/06/07 08:58:43;;;;;;;1.40;1.20;;;;;;;;;;6248045;22;20008;-84
2022/06/07 09:01:20;;;;;;;1.80;1.50;;;;;;;;;;6248379;23;20079;-85
2022/06/07 09:04:04;;;;;;;1.73;1.30;;;;;;;;;;6248179;23;20004;-84
2022/06/07 09:06:34;;;;;;;1.20;1.10;;;;;;;;;;6247870;23;20008;-84
2022/06/07 09:09:00;;;;;;;2.38;1.40;;;;;;;;;;6221136;23;20012;-84
2022/06/07 09:14:32;;;;;;;1.27;1.08;;;;;;;;;;6248076;23;20082;-85
2022/06/07 09:16:59;;;;;;;2.92;1.90;;;;;;;;;;6247935;23;20442;-84
2022/06/07 09:19:27;;;;;;;2.33;1.60;;;;;;;;;;6248299;22;20335;-84
2022/06/07 09:21:56;;;;;;;1.50;1.17;;;;;;;;;;6247875;23;20005;-84
2022/06/07 09:24:55;;;;;;;1.38;1.27;;;;;;;;;;6222669;23;20107;-84
2022/06/07 09:27:26;;;;;;;1.25;1.15;;;;;;;;;;6253870;23;20008;-84
2022/06/07 09:29:58;;;;;;;1.33;1.00;;;;;;;;;;6252395;22;19996;-85
2022/06/07 09:32:27;;;;;;;1.30;1.20;;;;;;;;;;6249976;23;20323;-84
2022/06/07 09:35:23;;;;;;;3.00;1.20;;;;;;;;;;6250108;23;20015;-83
2022/06/07 09:37:58;;;;;;;2.10;1.02;;;;;;;;;;6219033;23;20204;-83
2022/06/07 09:40:24;;;;;;;1.88;1.00;;;;;;;;;;6250394;22;20377;-84
2022/06/07 09:43:05;;;;;;;2.17;1.35;;;;;;;;;;6248938;23;20094;-85
2022/06/07 09:45:46;;;;;;;1.83;1.25;;;;;;;;;;6250909;23;20001;-89
2022/06/07 09:48:35;;;;;;;1.10;1.10;;;;;;;;;;6248809;22;19996;-85
2022/06/07 09:51:16;;;;;;;1.60;1.05;;;;;;;;;;6248518;23;20001;-84
2022/06/07 09:54:03;;;;;;;1.08;1.02;;;;;;;;;;6247949;23;20396;-84
2022/06/07 09:56:31;;;;;;;1.52;0.85;;;;;;;;;;6247563;23;20362;-85
2022/06/07 09:59:16;;;;;;;1.20;1.10;;;;;;;;;;6221279;23;20092;-84
2022/06/07 10:02:04;;;;;;;1.65;1.10;;;;;;;;;;6247637;23;20058;-84
2022/06/07 10:04:37;;;;;;;1.00;1.00;;;;;;;;;;6247331;23;20015;-89
2022/06/07 10:07:26;;;;;;;1.20;1.10;;;;;;;;;;6247522;23;20005;-86
2022/06/07 10:10:04;;;;;;;1.30;1.02;;;;;;;;;;6220108;23;20008;-86
2022/06/07 10:12:54;;;;;;;1.40;1.25;;;;;;;;;;6220571;23;20427;-86
2022/06/07 10:15:40;;;;;;;1.88;1.27;;;;;;;;;;6247394;23;20046;-86
2022/06/07 10:18:28;;;;;;;0.93;0.93;;;;;;;;;;6220353;22;20087;-86
2022/06/07 10:21:05;;;;;;;1.30;0.93;;;;;;;;;;6247157;23;20000;-85
2022/06/07 10:23:55;;;;;;;1.30;1.20;;;;;;;;;;6247453;23;20319;-86
2022/06/07 10:26:54;;;;;;;1.50;1.20;;;;;;;;;;6247481;23;20000;-86
2022/06/07 10:29:25;;;;;;;1.20;1.20;;;;;;;;;;6247053;22;20087;-86
2022/06/07 10:32:05;;;;;;;1.80;1.10;;;;;;;;;;6246958;23;20004;-85
2022/06/07 10:34:45;;;;;;;1.35;1.25;;;;;;;;;;6247303;23;20012;-87
2022/06/07 10:37:23;;;;;;;2.50;1.27;;;;;;;;;;6220316;23;20006;-86
2022/06/07 10:40:26;;;;;;;2.65;1.30;;;;;;;;;;6247245;22;20000;-85
2022/06/07 10:43:10;;;;;;;2.65;1.30;;;;;;;;;;6220127;23;20004;-82
2022/06/07 10:45:39;;;;;;;1.55;1.23;;;;;;;;;;6247635;23;20031;-85
2022/06/07 10:48:27;;;;;;;1.05;0.95;;;;;;;;;;6246949;22;20000;-85
2022/06/07 10:51:03;;;;;;;2.27;2.07;;;;;;;;;;6246825;23;20008;-85
2022/06/07 10:53:33;;;;;;;1.77;1.50;;;;;;;;;;6246782;23;20008;-85
2022/06/07 10:56:03;;;;;;;2.67;2.10;;;;;;;;;;6246826;23;20105;-86
2022/06/07 10:58:38;;;;;;;1.63;1.52;;;;;;;;;;6246791;22;20312;-82
2022/06/07 11:01:27;;;;;;;3.45;2.30;;;;;;;;;;6247140;23;19996;-85
2022/06/07 11:04:06;;;;;;;2.33;1.58;;;;;;;;;;6248120;23;20386;-87
2022/06/07 11:09:47;;;;;;;4.28;1.90;;;;;;;;;;6246931;22;20026;-86
2022/06/07 11:12:18;;;;;;;3.08;1.63;;;;;;;;;;6219931;23;20012;-85
2022/06/07 11:15:08;;;;;;;6.88;1.40;;;;;;;;;;6247092;23;20005;-86
2022/06/07 11:17:47;;;;;;;3.22;1.40;;;;;;;;;;6246587;23;20062;-86
2022/06/07 11:20:28;;;;;;;5.82;2.30;;;;;;;;;;6246806;22;19999;-86
2022/06/07 11:23:14;;;;;;;3.03;2.00;;;;;;;;;;6246980;23;20051;-86
2022/06/07 11:26:05;;;;;;;3.65;1.45;;;;;;;;;;6246309;23;20000;-86
2022/06/07 11:28:35;;;;;;;7.63;2.20;;;;;;;;;;6219840;23;20015;-85
2022/06/07 11:31:25;;;;;;;2.38;1.60;;;;;;;;;;6249268;23;20726;-87
2022/06/07 11:33:51;;;;;;;2.13;1.40;;;;;;;;;;6226655;23;20428;-84
2022/06/07 11:36:36;;;;;;;5.43;1.70;;;;;;;;;;6246900;23;20015;-85
2022/06/07 11:39:03;;;;;;;3.83;2.08;;;;;;;;;;6219186;23;20011;-85
2022/06/07 11:41:38;;;;;;;2.47;1.98;;;;;;;;;;6219270;23;20012;-84
2022/06/07 17:10:16;;;;;;;1.33;0.65;;;;;;;;;;6267309;22;20038;-85
2022/06/07 17:12:42;;;;;;;2.17;0.60;;;;;;;;;;6279868;22;20015;-84
2022/06/07 17:15:08;;;;;;;0.40;0.40;;;;;;;;;;6281828;22;20003;-83
2022/06/07 17:17:33;;;;;;;4.03;0.70;;;;;;;;;;6300439;22;20326;-88
2022/06/07 17:19:59;;;;;;;1.70;1.20;;;;;;;;;;6279018;22;19999;-84
2022/06/07 17:22:24;;;;;;;1.27;1.10;;;;;;;;;;6279356;22;20038;-80
2022/06/07 17:24:50;;;;;;;0.80;0.80;;;;;;;;;;6278874;22;20015;-82
2022/06/07 17:27:15;;;;;;;0.57;0.57;;;;;;;;;;6278892;22;20276;-83
2022/06/07 17:29:41;;;;;;;0.63;0.45;;;;;;;;;;6278645;22;20039;-82
2022/06/07 17:32:07;;;;;;;1.05;0.43;;;;;;;;;;6278504;22;20076;-81
2022/06/07 17:34:32;;;;;;;2.42;0.63;;;;;;;;;;6277622;22;20053;-83
2022/06/07 17:36:58;;;;;;;0.40;0.40;;;;;;;;;;6278273;22;20003;-82
2022/06/07 17:39:24;;;;;;;0.95;0.50;;;;;;;;;;6277621;22;20010;-82
2022/06/07 17:41:49;;;;;;;1.25;0.40;;;;;;;;;;6278733;22;20031;-83
2022/06/07 17:44:15;;;;;;;0.93;0.50;;;;;;;;;;6251406;22;20010;-85
2022/06/07 17:46:41;;;;;;;0.77;0.30;;;;;;;;;;6278451;22;20000;-81
2022/06/07 17:49:06;;;;;;;0.50;0.40;;;;;;;;;;6278268;22;20010;-84
2022/06/07 17:51:33;;;;;;;0.47;0.47;;;;;;;;;;6277904;22;20038;-82
2022/06/07 17:53:59;;;;;;;0.50;0.50;;;;;;;;;;6277968;22;20004;-82
2022/06/07 17:56:24;;;;;;;2.10;1.52;;;;;;;;;;6251169;22;20043;-83
2022/06/07 17:58:52;;;;;;;1.05;0.88;;;;;;;;;;6278243;22;20029;-85
2022/06/07 18:01:18;;;;;;;1.02;0.80;;;;;;;;;;6278351;22;20035;-84
2022/06/07 18:03:43;;;;;;;1.02;0.60;;;;;;;;;;6278298;22;20011;-86
2022/06/07 18:06:10;;;;;;;3.13;0.60;;;;;;;;;;6278314;22;20011;-84
2022/06/07 18:08:35;;;;;;;1.38;0.60;;;;;;;;;;6277936;22;20004;-84
2022/06/07 18:11:02;;;;;;;0.38;0.38;;;;;;;;;;6251011;22;20047;-84
2022/06/07 18:13:28;;;;;;;2.67;0.60;;;;;;;;;;6277812;22;20024;-83
2022/06/07 18:15:57;;;;;;;0.95;0.40;;;;;;;;;;6278034;22;20006;-81
2022/06/07 18:18:24;;;;;;;0.32;0.32;;;;;;;;;;6250419;22;20035;-81
2022/06/07 18:20:51;;;;;;;1.52;0.30;;;;;;;;;;6278040;22;20098;-81
2022/06/07 18:23:24;;;;;;;3.05;0.60;;;;;;;;;;6277859;22;20415;-83
2022/06/07 18:25:51;;;;;;;0.60;0.60;;;;;;;;;;6266255;22;20081;-81
2022/06/07 18:28:17;;;;;;;1.35;0.60;;;;;;;;;;6250808;22;20011;-83
2022/06/07 18:30:43;;;;;;;1.00;0.70;;;;;;;;;;6277776;22;20438;-83
2022/06/07 18:33:10;;;;;;;2.25;0.60;;;;;;;;;;6278106;22;20054;-83
2022/06/07 18:35:40;;;;;;;5.07;2.42;;;;;;;;;;6278043;22;20000;-83
2022/06/07 18:38:09;;;;;;;0.90;0.70;;;;;;;;;;6278157;22;20430;-85
2022/06/07 18:40:36;;;;;;;3.90;0.77;;;;;;;;;;6277976;22;20000;-83
2022/06/07 18:43:02;;;;;;;1.58;0.40;;;;;;;;;;6277870;22;20326;-83
2022/06/07 18:45:30;;;;;;;3.38;1.30;;;;;;;;;;6277939;22;19999;-83
2022/06/07 18:47:56;;;;;;;3.00;0.70;;;;;;;;;;6277669;22;20046;-83
2022/06/07 18:50:22;;;;;;;2.25;0.90;;;;;;;;;;6276973;22;20411;-84
2022/06/07 18:52:48;;;;;;;2.90;1.00;;;;;;;;;;6251989;22;20080;-86
2022/06/07 18:55:21;;;;;;;1.27;0.85;;;;;;;;;;6277754;22;20434;-85
2022/06/07 18:57:47;;;;;;;2.88;0.70;;;;;;;;;;6277741;22;20000;-86
2022/06/07 19:00:17;;;;;;;2.63;0.70;;;;;;;;;;6277584;22;20054;-86
2022/06/07 19:02:43;;;;;;;0.68;0.50;;;;;;;;;;6277517;22;20078;-86
2022/06/07 19:05:13;;;;;;;0.85;0.60;;;;;;;;;;6277861;22;19999;-83
2022/06/07 19:07:39;;;;;;;1.10;0.70;;;;;;;;;;6277900;22;20003;-86
2022/06/07 19:10:15;;;;;;;0.68;0.63;;;;;;;;;;6277902;22;19999;-88
2022/06/07 19:12:47;;;;;;;5.65;1.88;;;;;;;;;;6277206;22;20012;-84
2022/06/07 19:15:19;;;;;;;1.45;0.40;;;;;;;;;;6277570;22;20003;-89
2022/06/07 19:17:44;;;;;;;1.63;0.55;;;;;;;;;;6277475;22;20089;-85
2022/06/07 19:20:11;;;;;;;2.63;0.63;;;;;;;;;;6277941;22;20179;-87
2022/06/07 19:22:38;;;;;;;1.65;0.50;;;;;;;;;;6277578;22;20415;-85
2022/06/07 19:25:09;;;;;;;2.10;0.50;;;;;;;;;;6279499;22;20006;-87
2022/06/07 19:27:35;;;;;;;1.20;0.57;;;;;;;;;;6277629;22;20004;-83
2022/06/07 19:30:01;;;;;;;3.25;0.50;;;;;;;;;;6277827;22;20380;-84
2022/06/07 19:32:27;;;;;;;1.67;0.60;;;;;;;;;;6277611;22;20027;-82
2022/06/07 19:34:52;;;;;;;0.82;0.50;;;;;;;;;;6277498;22;20070;-84
2022/06/07 19:37:18;;;;;;;2.80;0.80;;;;;;;;;;6276870;22;20384;-83
2022/06/07 19:39:44;;;;;;;2.03;0.60;;;;;;;;;;6277640;22;20014;-85
2022/06/07 19:42:10;;;;;;;2.08;0.60;;;;;;;;;;6278572;22;20323;-91
2022/06/07 19:44:38;;;;;;;2.05;0.50;;;;;;;;;;6278405;22;20042;-88
2022/06/07 19:47:05;;;;;;;1.50;0.55;;;;;;;;;;6278575;22;20022;-90
2022/06/07 19:49:32;;;;;;;1.10;0.55;;;;;;;;;;6277918;22;20011;-89
2022/06/07 19:51:58;;;;;;;1.98;0.50;;;;;;;;;;6249279;22;20003;-89
2022/06/07 19:54:30;;;;;;;3.92;1.15;;;;;;;;;;6277449;22;20078;-88
2022/06/07 19:56:59;;;;;;;1.10;0.80;;;;;;;;;;6278127;22;20144;-85
2022/06/07 19:59:24;;;;;;;3.60;0.60;;;;;;;;;;6277948;22;20069;-85
2022/06/07 20:01:50;;;;;;;1.35;0.65;;;;;;;;;;6277301;22;20003;-87
2022/06/07 20:04:15;;;;;;;1.20;0.43;;;;;;;;;;6277620;22;20087;-86
2022/06/07 20:06:41;;;;;;;1.40;0.50;;;;;;;;;;6277339;22;20000;-85
2022/06/07 20:09:07;;;;;;;2.13;0.70;;;;;;;;;;6277538;22;20018;-84
2022/06/07 20:11:32;;;;;;;0.60;0.57;;;;;;;;;;6277138;22;20012;-85
2022/06/07 20:13:58;;;;;;;1.25;0.73;;;;;;;;;;6277139;22;20010;-84
2022/06/07 20:16:25;;;;;;;1.85;0.50;;;;;;;;;;6277223;22;20081;-86
2022/06/07 20:18:51;;;;;;;2.10;0.43;;;;;;;;;;6249655;22;20018;-86
2022/06/07 20:21:18;;;;;;;3.72;0.70;;;;;;;;;;6277100;22;20023;-87
2022/06/07 20:23:43;;;;;;;0.50;0.50;;;;;;;;;;6277155;22;20004;-89
2022/06/07 20:26:09;;;;;;;1.92;0.60;;;;;;;;;;6276930;22;20363;-89
2022/06/07 20:28:34;;;;;;;0.52;0.52;;;;;;;;;;6276885;22;20000;-88
2022/06/07 20:31:04;;;;;;;0.73;0.60;;;;;;;;;;6276855;22;20027;-85
2022/06/07 20:33:29;;;;;;;0.60;0.60;;;;;;;;;;6277075;22;20004;-88
2022/06/07 20:35:55;;;;;;;1.95;0.80;;;;;;;;;;6276984;22;20004;-89
2022/06/07 20:38:21;;;;;;;1.17;0.70;;;;;;;;;;6276743;22;20004;-86
2022/06/07 20:40:49;;;;;;;2.70;0.70;;;;;;;;;;6276833;22;20049;-87
2022/06/07 20:43:15;;;;;;;1.17;0.40;;;;;;;;;;6277213;22;20373;-85
2022/06/07 20:45:42;;;;;;;1.02;0.50;;;;;;;;;;6277095;22;20446;-86
2022/06/07 20:48:10;;;;;;;2.40;0.60;;;;;;;;;;6277689;22;20070;-87
2022/06/07 20:50:40;;;;;;;4.50;0.63;;;;;;;;;;6278658;22;20003;-84
2022/06/07 20:53:08;;;;;;;2.67;0.80;;;;;;;;;;6279188;22;20078;-88
2022/06/07 20:55:34;;;;;;;1.35;0.50;;;;;;;;;;6251710;22;20007;-86
2022/06/07 20:58:00;;;;;;;0.60;0.50;;;;;;;;;;6251767;22;20338;-85
2022/06/07 21:00:25;;;;;;;0.60;0.55;;;;;;;;;;6251898;22;20014;-88
2022/06/07 21:02:51;;;;;;;0.73;0.50;;;;;;;;;;6278964;22;20403;-90
2022/06/07 21:05:17;;;;;;;3.13;0.80;;;;;;;;;;6278829;22;20418;-89
2022/06/07 21:07:44;;;;;;;2.05;0.75;;;;;;;;;;6278932;22;20014;-89
2022/06/07 21:10:13;;;;;;;1.48;0.68;;;;;;;;;;6279412;22;20003;-88
2022/06/07 21:12:39;;;;;;;;;;;;;;;;;;6279424;22;20043;-90
2022/06/07 21:15:05;;;;;;;1.70;0.60;;;;;;;;;;6279081;22;19915;-89
2022/06/07 21:17:31;;;;;;;0.50;0.50;;;;;;;;;;6279067;22;20378;-85
2022/06/07 21:19:56;;;;;;;2.28;0.60;;;;;;;;;;6279236;22;20026;-90
2022/06/07 21:22:22;;;;;;;2.17;0.70;;;;;;;;;;6278972;22;20000;-88
2022/06/07 21:24:47;;;;;;;2.20;0.73;;;;;;;;;;6279206;22;20326;-89
2022/06/07 21:27:13;;;;;;;0.60;0.60;;;;;;;;;;6279338;22;20004;-90
2022/06/07 21:29:38;;;;;;;3.53;0.60;;;;;;;;;;6279180;22;20057;-89
2022/06/07 21:32:04;;;;;;;3.55;0.57;;;;;;;;;;6278915;22;20007;-88
2022/06/07 21:34:30;;;;;;;3.63;0.75;;;;;;;;;;6278436;22;19999;-86
2022/06/07 21:36:55;;;;;;;1.17;0.70;;;;;;;;;;6278542;22;20007;-87
